createdAt,value
2022-10-29T00:01:01.745Z,57.30
2022-10-29T00:03:38.937Z,49.50
2022-10-29T00:06:10.903Z,47.80
2022-10-29T00:08:39.985Z,42.30
2022-10-29T00:11:18.603Z,37.00
2022-10-29T00:13:48.284Z,46.80
2022-10-29T00:16:19.616Z,44.80
2022-10-29T00:18:47.066Z,39.60
2022-10-29T00:21:19.234Z,35.20
2022-10-29T00:23:47.974Z,32.60
2022-10-29T00:26:17.686Z,27.60
2022-10-29T00:28:45.717Z,24.30
2022-10-29T00:31:18.376Z,22.30
2022-10-29T00:33:46.476Z,22.10
2022-10-29T00:36:18.256Z,19.60
2022-10-29T00:38:45.618Z,17.90
2022-10-29T00:41:19.468Z,16.70
2022-10-29T00:43:50.055Z,17.90
2022-10-29T00:46:34.733Z,17.30
2022-10-29T00:49:02.988Z,14.50
2022-10-29T00:51:31.921Z,16.20
2022-10-29T00:54:05.988Z,18.10
2022-10-29T00:56:37.683Z,17.90
2022-10-29T00:59:08.597Z,17.70
2022-10-29T01:01:37.773Z,18.30
2022-10-29T01:04:05.750Z,17.40
2022-10-29T01:06:33.205Z,15.30
2022-10-29T01:09:00.529Z,16.50
2022-10-29T01:11:56.855Z,15.00
2022-10-29T01:14:56.260Z,13.90
2022-10-29T01:17:58.170Z,13.10
2022-10-29T01:21:11.186Z,13.40
2022-10-29T01:24:01.372Z,11.20
2022-10-29T01:27:00.312Z,13.30
2022-10-29T01:30:15.753Z,12.00
2022-10-29T01:33:42.789Z,11.20
2022-10-29T01:36:17.824Z,12.60
2022-10-29T01:38:53.007Z,12.70
2022-10-29T01:41:41.498Z,10.70
2022-10-29T01:44:39.443Z,12.00
2022-10-29T01:47:17.746Z,11.10
2022-10-29T01:49:58.554Z,11.90
2022-10-29T01:52:31.759Z,12.70
2022-10-29T01:54:59.195Z,12.20
2022-10-29T01:57:36.947Z,10.70
2022-10-29T02:00:06.937Z,11.00
2022-10-29T02:02:59.531Z,11.20
2022-10-29T02:05:54.642Z,10.00
2022-10-29T02:09:02.184Z,10.20
2022-10-29T02:11:45.259Z,9.30
2022-10-29T02:14:29.660Z,10.90
2022-10-29T02:16:58.653Z,10.90
2022-10-29T02:19:32.187Z,9.50
2022-10-29T02:21:59.507Z,10.50
2022-10-29T02:24:26.956Z,10.90
2022-10-29T02:26:54.358Z,9.70
2022-10-29T02:29:21.767Z,12.20
2022-10-29T02:31:49.275Z,10.30
2022-10-29T02:34:16.629Z,9.80
2022-10-29T02:36:44.182Z,10.70
2022-10-29T02:39:11.564Z,10.30
2022-10-29T02:41:38.953Z,10.90
2022-10-29T02:44:06.212Z,9.70
2022-10-29T02:46:38.877Z,10.50
2022-10-29T02:49:07.186Z,12.00
2022-10-29T02:51:34.721Z,12.10
2022-10-29T02:54:02.271Z,12.60
2022-10-29T02:56:29.785Z,11.90
2022-10-29T02:58:57.184Z,12.10
2022-10-29T03:01:24.600Z,13.80
2022-10-29T03:03:52.050Z,13.80
2022-10-29T03:06:20.639Z,14.30
2022-10-29T03:08:47.965Z,13.50
2022-10-29T03:11:15.631Z,12.90
2022-10-29T03:13:43.050Z,12.40
2022-10-29T03:16:10.558Z,11.30
2022-10-29T03:18:37.923Z,12.00
2022-10-29T03:21:05.242Z,10.60
2022-10-29T03:23:32.617Z,10.80
2022-10-29T03:26:00.136Z,11.40
2022-10-29T03:28:27.766Z,9.60
2022-10-29T03:30:55.149Z,10.20
2022-10-29T03:33:26.062Z,11.50
2022-10-29T03:36:03.611Z,10.10
2022-10-29T03:38:31.235Z,11.10
2022-10-29T03:40:58.580Z,9.40
2022-10-29T03:43:25.898Z,8.40
2022-10-29T03:45:57.324Z,9.60
2022-10-29T03:48:25.164Z,9.80
2022-10-29T03:50:57.250Z,10.50
2022-10-29T03:53:25.522Z,9.50
2022-10-29T03:55:54.186Z,9.90
2022-10-29T03:58:22.760Z,10.50
2022-10-29T04:01:06.034Z,9.90
2022-10-29T04:03:36.151Z,11.20
2022-10-29T04:06:14.474Z,11.00
2022-10-29T04:08:42.362Z,9.80
2022-10-29T04:11:12.534Z,9.60
2022-10-29T04:13:39.911Z,10.20
2022-10-29T04:16:07.516Z,8.50
2022-10-29T04:18:38.397Z,8.60
2022-10-29T04:23:01.941Z,8.70
2022-10-29T04:29:30.401Z,8.70
2022-10-29T04:31:57.730Z,8.40
2022-10-29T04:34:25.029Z,7.90
2022-10-29T04:36:53.154Z,9.10
2022-10-29T04:39:22.601Z,8.70
2022-10-29T04:41:50.898Z,9.50
2022-10-29T04:44:19.468Z,8.70
2022-10-29T04:46:47.079Z,11.40
2022-10-29T04:49:14.637Z,9.30
2022-10-29T04:51:42.144Z,10.20
2022-10-29T04:54:10.425Z,8.80
2022-10-29T04:56:37.773Z,8.30
2022-10-29T04:59:05.079Z,8.80
2022-10-29T05:01:32.599Z,9.30
2022-10-29T05:04:00.401Z,9.20
2022-10-29T05:06:27.828Z,8.90
2022-10-29T05:08:55.259Z,7.80
2022-10-29T05:11:22.725Z,7.80
2022-10-29T05:13:50.084Z,8.10
2022-10-29T05:16:17.546Z,8.90
2022-10-29T05:18:44.873Z,9.40
2022-10-29T05:21:12.206Z,8.60
2022-10-29T05:23:39.546Z,8.70
2022-10-29T05:26:07.279Z,8.20
2022-10-29T05:28:34.749Z,10.30
2022-10-29T05:31:02.116Z,8.80
2022-10-29T05:33:29.669Z,10.80
2022-10-29T05:36:00.509Z,10.50
2022-10-29T05:38:27.952Z,10.80
2022-10-29T05:40:58.693Z,11.00
2022-10-29T05:43:26.379Z,10.50
2022-10-29T05:45:54.089Z,9.80
2022-10-29T05:48:21.449Z,9.80
2022-10-29T05:50:48.892Z,9.90
2022-10-29T05:53:16.208Z,9.60
2022-10-29T05:55:43.771Z,9.10
2022-10-29T05:58:13.539Z,8.90
2022-10-29T06:00:44.142Z,8.60
2022-10-29T06:03:20.737Z,9.80
2022-10-29T06:05:49.969Z,9.10
2022-10-29T06:37:24.651Z,9.00
2022-10-29T07:36:08.161Z,9.60
2022-10-29T07:38:36.537Z,9.00
2022-10-29T07:41:59.238Z,7.80
2022-10-29T07:44:13.894Z,7.60
2022-10-29T07:47:01.725Z,7.50
2022-10-29T07:57:13.088Z,7.80
2022-10-29T08:00:25.157Z,8.50
2022-10-29T08:03:08.636Z,9.70
2022-10-29T08:05:58.197Z,9.00
2022-10-29T08:08:41.031Z,8.20
2022-10-29T08:11:51.733Z,9.30
2022-10-29T08:14:49.067Z,8.90
2022-10-29T08:17:34.248Z,9.20
2022-10-29T08:20:02.123Z,8.40
2022-10-29T08:22:36.988Z,8.10
2022-10-29T08:25:05.925Z,8.60
2022-10-29T08:27:34.011Z,10.40
2022-10-29T08:30:03.166Z,9.20
2022-10-29T08:32:33.307Z,11.90
2022-10-29T08:35:02.928Z,9.10
2022-10-29T08:37:32.004Z,9.80
2022-10-29T08:40:07.286Z,8.60
2022-10-29T08:43:08.845Z,8.60
2022-10-29T08:46:44.689Z,9.00
2022-10-29T08:49:23.020Z,10.60
2022-10-29T08:52:03.128Z,13.30
2022-10-29T08:54:37.320Z,11.10
2022-10-29T08:57:21.263Z,10.30
2022-10-29T09:00:12.623Z,8.80
2022-10-29T09:07:48.828Z,12.30
2022-10-29T09:12:49.640Z,9.80
2022-10-29T09:15:42.617Z,9.80
2022-10-29T09:18:41.796Z,9.60
2022-10-29T09:21:29.326Z,10.60
2022-10-29T09:24:05.601Z,13.20
2022-10-29T09:26:42.345Z,13.80
2022-10-29T09:29:45.744Z,11.70
2022-10-29T09:32:27.981Z,10.10
2022-10-29T09:35:02.843Z,10.50
2022-10-29T09:37:56.644Z,10.70
2022-10-29T09:40:59.077Z,9.70
2022-10-29T09:43:53.350Z,8.80
2022-10-29T09:46:46.431Z,8.30
2022-10-29T09:49:42.111Z,9.50
2022-10-29T09:52:19.184Z,8.50
2022-10-29T09:54:52.018Z,9.20
2022-10-29T09:57:32.228Z,8.70
2022-10-29T10:00:15.314Z,9.40
2022-10-29T10:03:19.494Z,8.30
2022-10-29T10:06:08.584Z,8.70
2022-10-29T10:09:05.618Z,8.70
2022-10-29T10:11:41.961Z,8.40
2022-10-29T10:14:21.273Z,8.30
2022-10-29T10:17:13.920Z,7.10
2022-10-29T10:19:49.295Z,7.30
2022-10-29T10:22:21.721Z,7.80
2022-10-29T10:25:57.640Z,7.90
2022-10-29T10:28:37.018Z,7.80
2022-10-29T10:31:21.724Z,6.70
2022-10-29T10:34:15.477Z,8.00
2022-10-29T10:36:49.689Z,7.60
2022-10-29T10:39:36.170Z,8.80
2022-10-29T10:42:16.794Z,8.30
2022-10-29T10:45:00.820Z,6.80
2022-10-29T10:47:36.326Z,6.30
2022-10-29T10:50:24.513Z,7.00
2022-10-29T10:53:01.659Z,23.90
2022-10-29T10:55:45.809Z,9.80
2022-10-29T10:58:38.057Z,8.00
2022-10-29T11:01:20.333Z,8.60
2022-10-29T11:04:09.840Z,7.60
2022-10-29T11:06:42.925Z,7.50
2022-10-29T11:09:35.682Z,7.50
2022-10-29T11:12:26.081Z,7.10
2022-10-29T11:15:15.121Z,6.30
2022-10-29T11:18:01.364Z,7.60
2022-10-29T11:20:36.458Z,6.60
2022-10-29T11:23:54.444Z,7.70
2022-10-29T11:26:37.006Z,8.20
2022-10-29T11:29:25.871Z,7.20
2022-10-29T11:32:18.668Z,8.00
2022-10-29T11:35:36.136Z,8.00
2022-10-29T11:42:47.560Z,10.60
2022-10-29T11:46:34.307Z,10.70
2022-10-29T11:54:18.858Z,8.20
2022-10-29T12:10:54.244Z,9.20
2022-10-29T12:14:27.797Z,8.40
2022-10-29T12:18:56.603Z,8.60
2022-10-29T12:22:32.143Z,8.70
2022-10-29T12:25:40.405Z,8.60
2022-10-29T12:28:34.852Z,8.80
2022-10-29T12:31:48.485Z,7.80
2022-10-29T12:35:16.363Z,8.30
2022-10-29T12:38:56.918Z,8.50
2022-10-29T12:41:51.176Z,9.60
2022-10-29T12:49:23.838Z,9.60
2022-10-29T13:00:02.965Z,31.40
2022-10-29T13:02:42.476Z,9.40
2022-10-29T13:05:33.480Z,9.10
2022-10-29T13:08:19.456Z,8.40
2022-10-29T13:14:00.246Z,9.50
2022-10-29T13:16:52.587Z,9.90
2022-10-29T13:19:58.731Z,10.40
2022-10-29T13:23:04.017Z,10.20
2022-10-29T13:26:22.018Z,11.40
2022-10-29T13:30:15.298Z,9.30
2022-10-29T13:32:51.169Z,8.70
2022-10-29T13:38:20.579Z,8.50
2022-10-29T13:41:24.487Z,9.70
2022-10-29T13:44:31.937Z,9.00
2022-10-29T13:47:25.738Z,9.60
2022-10-29T13:50:21.202Z,10.80
2022-10-29T13:56:59.075Z,7.80
2022-10-29T13:59:48.959Z,8.80
2022-10-29T14:02:45.788Z,9.30
2022-10-29T14:09:43.251Z,10.20
2022-10-29T14:12:41.265Z,9.90
2022-10-29T14:15:14.563Z,9.50
2022-10-29T14:17:46.008Z,12.30
2022-10-29T14:20:41.750Z,10.50
2022-10-29T14:23:37.600Z,9.70
2022-10-29T14:26:28.708Z,8.60
2022-10-29T14:29:32.020Z,9.20
2022-10-29T14:36:05.589Z,8.60
2022-10-29T14:39:32.451Z,9.70
2022-10-29T14:42:56.565Z,12.00
2022-10-29T14:45:54.405Z,11.00
2022-10-29T14:51:18.483Z,11.20
2022-10-29T14:54:12.211Z,11.40
2022-10-29T14:56:43.410Z,11.80
2022-10-29T15:03:36.258Z,17.50
2022-10-29T15:07:23.773Z,22.50
2022-10-29T15:09:40.783Z,21.00
2022-10-29T15:12:46.577Z,21.00
2022-10-29T15:15:24.132Z,27.00
2022-10-29T15:18:34.390Z,25.00
2022-10-29T15:21:34.614Z,23.80
2022-10-29T15:24:35.238Z,22.00
2022-10-29T15:27:19.332Z,18.00
2022-10-29T15:29:48.798Z,19.80
2022-10-29T15:32:17.871Z,22.90
2022-10-29T15:34:53.278Z,22.90
2022-10-29T15:37:32.125Z,21.80
2022-10-29T15:40:26.513Z,22.50
2022-10-29T15:43:32.299Z,24.20
2022-10-29T15:47:24.128Z,21.60
2022-10-29T15:49:54.871Z,25.40
2022-10-29T16:17:24.476Z,26.00
2022-10-29T16:21:38.627Z,24.20
2022-10-29T16:24:21.265Z,30.30
2022-10-29T16:27:15.184Z,29.70
2022-10-29T17:00:35.167Z,41.90
2022-10-29T17:03:35.432Z,37.00
2022-10-29T17:10:38.656Z,35.20
2022-10-29T17:26:05.307Z,42.90
2022-10-29T17:59:15.062Z,47.00
2022-10-29T18:02:19.843Z,47.70
2022-10-29T18:05:18.818Z,48.60
2022-10-29T18:08:05.914Z,50.90
2022-10-29T18:10:37.281Z,54.20
2022-10-29T18:13:33.369Z,57.20
2022-10-29T18:16:02.165Z,58.90
2022-10-29T18:18:54.371Z,62.80
2022-10-29T18:21:37.225Z,57.20
2022-10-29T18:24:07.265Z,56.10
2022-10-29T18:26:54.625Z,61.70
2022-10-29T18:29:53.547Z,58.90
2022-10-29T18:32:39.746Z,66.40
2022-10-29T18:35:55.338Z,67.70
2022-10-29T18:38:56.293Z,61.50
2022-10-29T18:41:52.048Z,62.30
2022-10-29T18:44:47.764Z,59.90
2022-10-29T18:47:59.838Z,64.00
2022-10-29T18:50:43.977Z,62.00
2022-10-29T18:54:38.318Z,79.90
2022-10-29T19:09:19.964Z,85.60
2022-10-29T20:32:54.312Z,87.30
2022-10-29T20:36:12.169Z,100.30
2022-10-29T20:39:36.661Z,99.00
2022-10-29T20:42:55.542Z,95.40
2022-10-29T20:45:32.684Z,91.50
2022-10-29T20:48:59.614Z,95.00
2022-10-29T20:52:51.851Z,95.20
2022-10-29T20:56:44.171Z,94.90
2022-10-29T20:59:58.925Z,88.00
2022-10-29T21:03:38.490Z,87.30
2022-10-29T21:27:21.744Z,85.90
2022-10-29T21:32:00.900Z,85.70
2022-10-29T21:55:00.980Z,85.60
2022-10-29T22:02:45.355Z,82.90
2022-10-29T22:05:42.778Z,88.40
2022-10-29T22:08:14.223Z,86.60
2022-10-29T22:10:50.761Z,79.70
2022-10-29T22:16:28.117Z,84.50
2022-10-29T22:19:11.187Z,84.60
2022-10-29T22:21:53.985Z,84.70
2022-10-29T22:24:41.184Z,85.30
2022-10-29T22:27:17.929Z,81.30
2022-10-29T22:29:57.356Z,81.20
2022-10-29T22:32:36.916Z,80.10
2022-10-29T22:35:18.489Z,78.90
2022-10-29T22:38:00.209Z,76.40
2022-10-29T22:40:46.417Z,73.20
2022-10-29T22:43:15.389Z,75.30
2022-10-29T22:45:55.980Z,76.70
2022-10-29T22:48:38.723Z,77.50
2022-10-29T22:51:18.793Z,78.50
2022-10-29T22:53:56.136Z,77.70
2022-10-29T22:56:41.382Z,78.20
2022-10-29T22:59:17.007Z,78.50
2022-10-29T23:01:48.653Z,79.60
2022-10-29T23:07:02.077Z,76.70
2022-10-29T23:09:31.333Z,76.70
2022-10-29T23:11:59.620Z,78.30
2022-10-29T23:14:30.650Z,80.20
2022-10-29T23:17:22.082Z,76.60
2022-10-29T23:20:00.825Z,81.40
2022-10-29T23:22:38.592Z,80.80
2022-10-29T23:25:16.296Z,80.40
2022-10-29T23:28:12.648Z,75.90
2022-10-29T23:30:51.747Z,77.30
2022-10-29T23:33:36.190Z,79.90
2022-10-29T23:36:20.389Z,83.30
2022-10-29T23:38:58.331Z,77.50
2022-10-29T23:41:35.244Z,75.10
2022-10-29T23:44:20.307Z,78.10
2022-10-29T23:46:55.377Z,74.90
2022-10-29T23:49:34.391Z,72.70
2022-10-29T23:52:08.372Z,76.10
2022-10-29T23:54:48.828Z,72.70
2022-10-29T23:57:20.514Z,73.00
